Time;durP1;ratioP1;P1;durP2;ratioP2;P2;SDS_P1;SDS_P2;PMS_P1;PMS_P2;Temp;Humidity;BMP_temperature;BMP_pressure;BME280_temperature;BME280_humidity;BME280_pressure;Samples;Min_cycle;Max_cycle;Signal;HPM_P1;HPM_P2
2022/07/11 00:02:01;;;;;;;33.72;20.42;;;21.50;54.70;;;;;;4877695;29;20089;-71
2022/07/11 00:04:29;;;;;;;29.40;17.42;;;21.50;53.80;;;;;;4877662;29;20037;-72
2022/07/11 00:06:55;;;;;;;33.15;16.50;;;21.50;54.30;;;;;;4881210;29;20021;-72
2022/07/11 00:09:21;;;;;;;37.90;16.08;;;21.50;53.90;;;;;;4864391;29;20029;-72
2022/07/11 00:11:48;;;;;;;24.23;14.13;;;21.50;54.10;;;;;;4879787;29;20028;-71
2022/07/11 00:14:18;;;;;;;27.35;14.80;;;21.50;54.20;;;;;;4879987;29;20041;-72
2022/07/11 00:16:44;;;;;;;25.38;13.80;;;21.50;54.20;;;;;;4881051;29;20037;-72
2022/07/11 00:19:10;;;;;;;29.58;14.82;;;21.50;54.40;;;;;;4881234;29;20048;-72
2022/07/11 00:21:36;;;;;;;31.45;15.50;;;21.50;54.50;;;;;;4880664;29;20028;-73
2022/07/11 00:24:03;;;;;;;25.13;13.75;;;21.50;54.50;;;;;;4880865;29;20037;-73
2022/07/11 00:26:29;;;;;;;26.98;14.20;;;21.50;54.40;;;;;;4864373;29;20029;-73
2022/07/11 00:28:56;;;;;;;26.13;13.80;;;21.60;54.90;;;;;;4879553;29;20035;-72
2022/07/11 00:31:22;;;;;;;26.80;14.68;;;21.50;54.60;;;;;;4879256;29;20084;-72
2022/07/11 00:33:48;;;;;;;27.45;14.45;;;21.50;54.90;;;;;;4879572;29;20039;-72
2022/07/11 00:36:14;;;;;;;28.58;13.25;;;21.50;54.70;;;;;;4879472;29;20033;-73
2022/07/11 00:38:40;;;;;;;25.05;14.32;;;21.50;54.90;;;;;;4880526;29;20541;-73
2022/07/11 00:41:06;;;;;;;26.15;13.88;;;21.50;55.30;;;;;;4879343;29;20037;-73
2022/07/11 00:43:34;;;;;;;25.25;13.68;;;21.50;54.90;;;;;;4879442;29;20526;-72
2022/07/11 00:46:00;;;;;;;19.75;12.50;;;21.50;55.10;;;;;;4880468;29;20073;-73
2022/07/11 00:48:26;;;;;;;25.08;13.25;;;21.50;55.30;;;;;;4880472;29;20029;-72
2022/07/11 00:50:52;;;;;;;22.60;12.52;;;21.50;55.30;;;;;;4880083;29;20069;-72
2022/07/11 00:53:19;;;;;;;23.20;13.00;;;21.50;55.30;;;;;;4880495;29;20029;-72
2022/07/11 00:55:46;;;;;;;25.00;12.38;;;21.50;55.40;;;;;;4894601;29;20021;-72
2022/07/11 00:58:13;;;;;;;19.38;11.57;;;21.50;55.70;;;;;;4880296;29;20088;-72
2022/07/11 01:00:40;;;;;;;23.05;12.30;;;21.50;55.50;;;;;;4879070;29;20033;-72
2022/07/11 01:03:06;;;;;;;23.98;12.90;;;21.50;55.60;;;;;;4880273;29;20037;-72
2022/07/11 01:05:32;;;;;;;23.48;12.07;;;21.50;55.90;;;;;;4880097;29;20029;-73
2022/07/11 01:07:58;;;;;;;22.52;12.68;;;21.50;56.30;;;;;;4879267;29;20044;-72
2022/07/11 01:10:23;;;;;;;20.80;12.23;;;21.50;56.00;;;;;;4879651;29;20039;-73
2022/07/11 01:12:50;;;;;;;21.35;11.98;;;21.50;56.50;;;;;;4894483;29;20025;-72
2022/07/11 01:15:16;;;;;;;23.15;13.13;;;21.50;56.30;;;;;;4879772;29;20160;-72
2022/07/11 01:17:43;;;;;;;21.25;11.13;;;21.50;56.30;;;;;;4879896;29;20041;-73
2022/07/11 01:20:12;;;;;;;20.15;11.05;;;21.50;56.20;;;;;;4879657;29;20085;-73
2022/07/11 01:22:52;;;;;;;20.67;11.93;;;21.50;56.40;;;;;;4878919;29;20417;-72
2022/07/11 01:25:30;;;;;;;19.10;10.70;;;21.50;56.60;;;;;;4879681;29;20044;-72
2022/07/11 01:28:02;;;;;;;22.25;11.73;;;21.50;56.60;;;;;;4879779;29;20025;-71
2022/07/11 01:30:30;;;;;;;26.00;12.20;;;21.50;56.60;;;;;;4879420;29;20108;-71
2022/07/11 01:32:57;;;;;;;21.85;11.73;;;21.50;56.40;;;;;;4878515;29;20124;-71
2022/07/11 01:35:23;;;;;;;20.05;11.00;;;21.50;56.80;;;;;;4879520;29;20033;-72
2022/07/11 01:37:50;;;;;;;19.90;11.38;;;21.50;56.80;;;;;;4879595;29;20037;-71
2022/07/11 01:40:16;;;;;;;19.52;11.02;;;21.50;56.70;;;;;;4879340;29;20036;-71
2022/07/11 01:42:42;;;;;;;20.08;11.05;;;21.50;56.80;;;;;;4879548;29;20085;-71
2022/07/11 01:45:12;;;;;;;19.77;11.30;;;21.50;57.00;;;;;;4862756;29;20033;-71
2022/07/11 01:47:39;;;;;;;19.67;10.18;;;21.50;56.90;;;;;;4879306;29;20116;-71
2022/07/11 01:50:05;;;;;;;20.98;10.93;;;21.50;57.20;;;;;;4878959;29;20055;-71
2022/07/11 01:52:32;;;;;;;21.08;11.98;;;21.50;57.00;;;;;;4879352;29;20025;-71
2022/07/11 01:54:57;;;;;;;18.02;10.35;;;21.50;57.20;;;;;;4879338;29;20036;-71
2022/07/11 01:57:23;;;;;;;19.73;10.10;;;21.50;57.20;;;;;;4878149;29;20037;-71
2022/07/11 01:59:49;;;;;;;21.17;11.32;;;21.50;57.20;;;;;;4877782;29;20031;-71
2022/07/11 02:02:15;;;;;;;21.35;11.40;;;21.50;57.30;;;;;;4893504;29;20580;-71
2022/07/11 02:04:43;;;;;;;21.27;10.23;;;21.50;58.30;;;;;;4879025;29;20033;-71
2022/07/11 02:07:11;;;;;;;20.73;10.68;;;21.50;57.30;;;;;;4879118;29;20395;-71
2022/07/11 02:09:38;;;;;;;21.10;10.55;;;21.50;57.90;;;;;;4878860;29;20037;-72
2022/07/11 02:12:05;;;;;;;20.50;10.48;;;21.50;56.70;;;;;;4878881;29;20486;-71
2022/07/11 02:14:31;;;;;;;19.13;10.68;;;21.50;56.70;;;;;;4877755;29;20481;-71
2022/07/11 02:16:58;;;;;;;19.52;10.50;;;21.50;57.30;;;;;;4878906;29;20079;-71
2022/07/11 02:19:24;;;;;;;17.63;9.55;;;21.50;57.10;;;;;;4879003;29;20037;-70
2022/07/11 02:21:50;;;;;;;18.80;9.75;;;21.50;57.30;;;;;;4877505;29;20037;-71
2022/07/11 02:24:15;;;;;;;18.17;9.60;;;21.50;57.20;;;;;;4878966;29;20405;-71
2022/07/11 02:26:42;;;;;;;17.17;9.30;;;21.50;57.40;;;;;;4878754;29;20140;-72
2022/07/11 02:29:08;;;;;;;18.15;9.75;;;21.50;57.30;;;;;;4892421;29;20112;-72
2022/07/11 02:31:34;;;;;;;17.98;9.77;;;21.50;57.70;;;;;;4877120;29;20025;-72
2022/07/11 02:34:00;;;;;;;17.95;10.15;;;21.50;57.60;;;;;;4878673;29;20128;-72
2022/07/11 02:36:25;;;;;;;14.52;8.85;;;21.50;57.60;;;;;;4861975;29;20451;-72
2022/07/11 02:38:51;;;;;;;18.02;10.02;;;21.50;57.30;;;;;;4878332;29;20075;-72
2022/07/11 02:41:18;;;;;;;18.30;9.32;;;21.50;57.30;;;;;;4878186;29;20047;-71
2022/07/11 02:43:44;;;;;;;15.50;9.05;;;21.50;57.20;;;;;;4878508;29;20057;-72
2022/07/11 02:46:09;;;;;;;16.83;9.55;;;21.50;57.40;;;;;;4878467;29;20509;-72
2022/07/11 02:48:35;;;;;;;16.52;9.00;;;21.50;57.50;;;;;;4878322;29;20025;-71
2022/07/11 02:51:01;;;;;;;16.77;9.00;;;21.50;57.50;;;;;;4878103;29;20442;-72
2022/07/11 02:53:27;;;;;;;18.38;8.90;;;21.50;57.70;;;;;;4878414;29;20524;-72
2022/07/11 02:55:52;;;;;;;21.00;9.73;;;21.50;57.90;;;;;;4878391;29;20033;-72
2022/07/11 02:58:18;;;;;;;16.60;9.00;;;21.50;58.20;;;;;;4878141;29;20056;-72
2022/07/11 03:00:44;;;;;;;22.70;9.02;;;21.50;58.00;;;;;;4876771;29;20072;-72
2022/07/11 03:03:10;;;;;;;17.30;8.70;;;21.50;58.10;;;;;;4878086;29;20517;-72
2022/07/11 03:05:35;;;;;;;17.10;9.05;;;21.50;58.10;;;;;;4878354;29;20033;-72
2022/07/11 03:08:01;;;;;;;15.93;8.65;;;21.50;58.10;;;;;;4892469;29;20402;-72
2022/07/11 03:10:27;;;;;;;20.42;8.77;;;21.50;58.00;;;;;;4877924;29;20040;-72
2022/07/11 03:12:53;;;;;;;17.15;8.35;;;21.50;58.00;;;;;;4878086;29;20029;-72
2022/07/11 03:15:19;;;;;;;17.25;9.07;;;21.50;58.00;;;;;;4878039;29;20033;-72
2022/07/11 03:17:46;;;;;;;20.13;8.63;;;21.50;58.50;;;;;;4878215;29;20415;-72
2022/07/11 03:20:12;;;;;;;15.00;8.93;;;21.50;58.40;;;;;;4877904;29;20164;-72
2022/07/11 03:22:38;;;;;;;14.18;8.15;;;21.50;58.40;;;;;;4878103;29;20072;-72
2022/07/11 03:25:05;;;;;;;16.67;8.27;;;21.50;58.20;;;;;;4878045;29;20060;-72
2022/07/11 03:27:34;;;;;;;14.60;8.23;;;21.50;58.30;;;;;;4877968;29;20048;-72
2022/07/11 03:30:00;;;;;;;17.30;9.02;;;21.50;58.70;;;;;;4876678;29;20044;-73
2022/07/11 03:32:26;;;;;;;16.70;8.30;;;21.50;59.00;;;;;;4877886;29;20025;-72
2022/07/11 03:37:36;;;;;;;18.13;8.38;;;21.50;58.70;;;;;;4877806;29;20037;-72
2022/07/11 03:40:02;;;;;;;18.60;8.60;;;21.50;58.40;;;;;;4890706;23;20045;-84
2022/07/11 03:42:28;;;;;;;15.30;8.50;;;21.50;58.80;;;;;;4864668;29;20032;-83
2022/07/11 03:44:54;;;;;;;15.05;7.90;;;21.50;58.90;;;;;;4881548;29;20039;-83
2022/07/11 03:47:20;;;;;;;15.82;8.05;;;21.50;58.60;;;;;;4881737;29;20032;-83
2022/07/11 03:49:47;;;;;;;14.50;7.70;;;21.50;58.30;;;;;;4876947;29;20030;-84
2022/07/11 03:52:13;;;;;;;14.82;7.90;;;21.50;58.40;;;;;;4861827;29;20634;-84
2022/07/11 03:54:39;;;;;;;14.82;7.45;;;21.50;58.50;;;;;;4861631;29;20033;-84
2022/07/11 03:57:05;;;;;;;15.73;7.60;;;21.50;58.80;;;;;;4861942;29;20038;-84
2022/07/11 03:59:31;;;;;;;14.27;7.30;;;21.50;58.20;;;;;;4861703;29;20037;-84
2022/07/11 04:01:57;;;;;;;14.38;8.00;;;21.50;58.20;;;;;;4876978;29;20462;-83
2022/07/11 04:04:23;;;;;;;14.02;7.93;;;21.50;58.10;;;;;;4862585;29;20042;-84
2022/07/11 04:06:48;;;;;;;12.27;7.35;;;21.50;58.10;;;;;;4862914;29;20038;-84
2022/07/11 04:09:14;;;;;;;16.25;7.43;;;21.50;58.30;;;;;;4861409;29;20037;-83
2022/07/11 04:11:40;;;;;;;13.02;6.60;;;21.50;58.20;;;;;;4861380;29;20026;-84
2022/07/11 04:14:06;;;;;;;17.15;7.07;;;21.50;58.30;;;;;;4862683;29;20045;-83
2022/07/11 04:16:32;;;;;;;15.38;7.60;;;21.50;58.50;;;;;;4862568;29;20030;-84
2022/07/11 04:18:58;;;;;;;17.20;8.02;;;21.50;58.40;;;;;;4862440;29;20112;-84
2022/07/11 04:21:23;;;;;;;15.63;7.70;;;21.50;58.70;;;;;;4862391;29;20479;-84
2022/07/11 04:23:49;;;;;;;14.57;7.63;;;21.50;58.50;;;;;;4876615;29;20552;-84
2022/07/11 04:26:15;;;;;;;13.98;7.47;;;21.50;58.60;;;;;;4862257;29;20452;-81
2022/07/11 04:28:44;;;;;;;15.77;8.27;;;21.50;58.60;;;;;;4861086;29;20082;-81
2022/07/11 04:31:10;;;;;;;13.83;7.07;;;21.50;58.50;;;;;;4876465;29;20040;-81
2022/07/11 04:33:36;;;;;;;13.02;7.15;;;21.50;58.70;;;;;;4876790;29;20112;-80
2022/07/11 04:36:02;;;;;;;12.77;6.70;;;21.50;58.70;;;;;;4861009;29;20543;-80
2022/07/11 04:38:28;;;;;;;12.98;7.13;;;21.50;58.70;;;;;;4876297;29;20030;-80
2022/07/11 04:40:54;;;;;;;14.95;7.38;;;21.50;58.80;;;;;;4861847;29;20401;-81
2022/07/11 04:43:20;;;;;;;14.75;7.85;;;21.50;59.00;;;;;;4862639;29;20029;-82
2022/07/11 04:45:46;;;;;;;13.27;6.70;;;21.50;59.30;;;;;;4864910;29;20056;-81
2022/07/11 04:48:12;;;;;;;14.20;7.15;;;21.50;59.00;;;;;;4863080;29;20471;-81
2022/07/11 04:50:37;;;;;;;11.85;6.82;;;21.50;59.00;;;;;;4860251;29;20026;-81
2022/07/11 04:53:03;;;;;;;11.40;6.88;;;21.50;59.30;;;;;;4861425;29;20033;-82
2022/07/11 04:55:29;;;;;;;13.30;6.85;;;21.50;59.30;;;;;;4860601;29;20074;-81
2022/07/11 04:57:55;;;;;;;14.30;7.22;;;21.50;59.20;;;;;;4862002;29;20547;-80
2022/07/11 05:00:21;;;;;;;12.82;7.13;;;21.50;59.20;;;;;;4860445;29;20041;-80
2022/07/11 05:02:47;;;;;;;13.95;7.22;;;21.50;59.30;;;;;;4861908;29;20026;-81
2022/07/11 05:05:13;;;;;;;12.65;6.95;;;21.50;59.50;;;;;;4861703;29;20113;-81
2022/07/11 05:07:39;;;;;;;14.65;7.45;;;21.50;59.00;;;;;;4861792;29;20041;-81
2022/07/11 05:10:05;;;;;;;19.65;7.95;;;21.50;59.40;;;;;;4861127;29;20041;-82
2022/07/11 05:12:31;;;;;;;15.10;6.90;;;21.50;59.50;;;;;;4861804;29;20030;-82
2022/07/11 05:15:00;;;;;;;12.45;6.75;;;21.50;59.30;;;;;;4861632;29;20037;-81
2022/07/11 05:17:26;;;;;;;13.43;6.88;;;21.40;59.80;;;;;;4861443;29;20037;-81
2022/07/11 05:19:52;;;;;;;13.65;6.57;;;21.50;59.20;;;;;;4861055;29;20034;-81
2022/07/11 05:22:18;;;;;;;13.88;7.00;;;21.50;59.50;;;;;;4861197;29;20367;-81
2022/07/11 05:24:44;;;;;;;14.18;6.90;;;21.50;59.60;;;;;;4861233;29;20586;-81
2022/07/11 05:27:10;;;;;;;12.93;7.07;;;21.50;59.70;;;;;;4861258;29;20029;-81
2022/07/11 05:29:35;;;;;;;12.60;7.38;;;21.50;60.00;;;;;;4860956;29;20041;-81
2022/07/11 05:32:01;;;;;;;11.07;6.13;;;21.50;59.80;;;;;;4861172;29;20390;-81
2022/07/11 05:34:27;;;;;;;12.55;7.10;;;21.50;59.90;;;;;;4861252;29;20049;-81
2022/07/11 05:36:53;;;;;;;13.00;6.95;;;21.50;59.70;;;;;;4861065;29;20061;-81
2022/07/11 05:39:19;;;;;;;13.48;7.13;;;21.50;59.80;;;;;;4859642;29;20510;-81
2022/07/11 05:41:45;;;;;;;11.65;6.28;;;21.50;59.80;;;;;;4860747;29;20038;-81
2022/07/11 05:44:10;;;;;;;11.98;6.22;;;21.50;59.90;;;;;;4875364;29;20036;-80
2022/07/11 05:46:39;;;;;;;11.65;6.20;;;21.60;60.00;;;;;;4860866;29;20044;-80
2022/07/11 05:49:07;;;;;;;12.70;6.60;;;21.50;59.90;;;;;;4860872;29;20391;-79
2022/07/11 05:51:33;;;;;;;14.80;6.72;;;21.50;59.40;;;;;;4860543;29;20169;-80
2022/07/11 05:53:59;;;;;;;11.25;5.80;;;21.50;59.60;;;;;;4860878;29;20062;-80
2022/07/11 05:56:25;;;;;;;14.07;6.00;;;21.60;59.70;;;;;;4860902;29;20065;-80
2022/07/11 05:58:51;;;;;;;11.70;6.20;;;21.50;59.30;;;;;;4874872;29;20037;-80
2022/07/11 06:01:17;;;;;;;14.23;6.95;;;21.60;59.80;;;;;;4860296;29;20030;-79
2022/07/11 06:03:43;;;;;;;13.48;6.72;;;21.50;59.70;;;;;;4843156;29;20521;-81
2022/07/11 06:06:10;;;;;;;12.35;6.38;;;21.50;59.70;;;;;;4874973;29;20025;-81
2022/07/11 06:08:42;;;;;;;11.95;6.10;;;21.50;60.20;;;;;;4860392;29;20509;-81
2022/07/11 06:11:13;;;;;;;11.95;6.68;;;21.60;60.30;;;;;;4860482;29;20030;-81
2022/07/11 06:13:40;;;;;;;13.57;6.32;;;21.60;60.00;;;;;;4860461;29;20092;-73
2022/07/11 06:16:07;;;;;;;11.70;4.90;;;21.50;60.10;;;;;;4860313;29;20463;-73
2022/07/11 06:18:34;;;;;;;14.10;5.07;;;21.50;59.00;;;;;;4859041;29;20415;-74
2022/07/11 06:21:00;;;;;;;13.95;4.43;;;21.50;59.00;;;;;;4859818;29;20169;-74
2022/07/11 06:23:27;;;;;;;12.82;5.00;;;21.50;58.70;;;;;;4860125;29;20040;-73
2022/07/11 06:25:54;;;;;;;9.77;3.67;;;21.40;58.60;;;;;;4860172;29;20026;-73
2022/07/11 06:28:20;;;;;;;11.07;3.88;;;21.40;58.40;;;;;;4858812;29;20526;-73
2022/07/11 06:30:45;;;;;;;14.02;3.88;;;21.40;58.30;;;;;;4859817;29;20112;-74
2022/07/11 06:33:11;;;;;;;11.68;3.78;;;21.40;57.80;;;;;;4843650;29;20048;-74
2022/07/11 06:35:37;;;;;;;16.08;4.22;;;21.40;58.40;;;;;;4858769;29;20081;-74
2022/07/11 06:38:03;;;;;;;10.77;3.13;;;21.40;57.60;;;;;;4860008;29;20025;-75
2022/07/11 06:40:29;;;;;;;13.10;3.15;;;21.40;58.20;;;;;;4874323;29;20045;-74
2022/07/11 06:42:55;;;;;;;15.60;3.45;;;21.40;58.10;;;;;;4858668;29;20056;-75
2022/07/11 06:45:21;;;;;;;11.55;2.78;;;21.40;58.20;;;;;;4858797;29;20076;-77
2022/07/11 06:47:47;;;;;;;13.73;3.58;;;21.40;58.60;;;;;;4858957;29;20040;-76
2022/07/11 06:50:13;;;;;;;13.20;3.72;;;21.40;57.50;;;;;;4859714;29;20502;-76
2022/07/11 06:52:38;;;;;;;11.93;3.45;;;21.40;58.10;;;;;;4856657;29;20037;-75
2022/07/11 06:55:05;;;;;;;16.67;3.53;;;21.30;58.50;;;;;;4851882;29;20048;-75
2022/07/11 06:57:31;;;;;;;15.40;3.97;;;21.30;57.80;;;;;;4857735;29;20072;-74
2022/07/11 06:59:57;;;;;;;8.93;2.88;;;21.30;57.90;;;;;;4857206;29;20494;-75
2022/07/11 07:02:27;;;;;;;13.98;3.30;;;21.30;57.90;;;;;;4856876;29;20124;-76
2022/07/11 07:04:54;;;;;;;16.45;3.33;;;21.30;58.20;;;;;;4865211;29;20383;-75
2022/07/11 07:07:20;;;;;;;8.77;2.50;;;21.30;58.00;;;;;;4873582;29;20452;-76
2022/07/11 07:09:46;;;;;;;9.30;2.95;;;21.30;57.80;;;;;;4873919;29;20435;-76
2022/07/11 07:12:13;;;;;;;11.95;2.90;;;21.30;57.90;;;;;;4873453;29;20025;-77
2022/07/11 07:14:39;;;;;;;12.02;2.90;;;21.30;57.70;;;;;;4874752;29;20033;-78
2022/07/11 07:17:05;;;;;;;15.73;3.20;;;21.40;58.20;;;;;;4873955;29;20043;-78
2022/07/11 07:19:31;;;;;;;18.60;3.38;;;21.40;57.40;;;;;;4864041;29;20048;-78
2022/07/11 07:21:57;;;;;;;13.52;3.55;;;21.50;57.40;;;;;;4856653;29;20042;-78
2022/07/11 07:24:23;;;;;;;15.07;3.03;;;21.50;57.30;;;;;;4856590;29;20124;-79
2022/07/11 07:26:49;;;;;;;12.18;3.33;;;21.60;57.20;;;;;;4858674;29;20031;-78
2022/07/11 07:29:14;;;;;;;15.63;4.13;;;21.60;57.20;;;;;;4858621;29;20029;-78
2022/07/11 07:31:40;;;;;;;14.75;4.38;;;21.60;57.20;;;;;;4857369;29;20129;-79
2022/07/11 07:34:08;;;;;;;15.75;4.53;;;21.60;57.40;;;;;;4857313;29;20034;-78
2022/07/11 07:36:33;;;;;;;16.85;5.10;;;21.60;57.30;;;;;;4873582;29;20526;-78
2022/07/11 07:38:59;;;;;;;18.23;4.93;;;21.60;57.50;;;;;;4873004;29;20048;-78
2022/07/11 07:41:25;;;;;;;18.85;5.28;;;21.60;57.70;;;;;;4873565;29;20033;-78
2022/07/11 07:43:51;;;;;;;19.90;5.20;;;21.70;57.60;;;;;;4873266;29;20043;-80
2022/07/11 07:46:18;;;;;;;24.95;6.07;;;21.70;57.90;;;;;;4873537;29;20029;-78
2022/07/11 07:48:47;;;;;;;22.13;5.63;;;21.70;57.90;;;;;;4874381;29;20431;-77
2022/07/11 07:51:13;;;;;;;20.83;6.32;;;21.70;58.10;;;;;;4873790;29;20029;-78
2022/07/11 07:53:39;;;;;;;22.55;6.05;;;21.70;58.00;;;;;;4861804;29;20041;-78
2022/07/11 07:56:05;;;;;;;21.65;5.90;;;21.70;59.00;;;;;;4858418;29;20021;-77
2022/07/11 07:58:32;;;;;;;21.48;5.43;;;21.80;58.30;;;;;;4857029;29;20036;-77
2022/07/11 08:03:43;;;;;;;21.27;5.28;;;21.80;58.60;;;;;;4858793;29;20555;-78
2022/07/11 08:06:08;;;;;;;18.50;5.35;;;21.70;58.50;;;;;;4858415;29;20494;-78
2022/07/11 08:08:34;;;;;;;15.93;4.65;;;21.70;58.70;;;;;;4857811;29;20040;-79
2022/07/11 08:11:02;;;;;;;19.33;5.05;;;21.80;58.60;;;;;;4856373;29;20513;-77
2022/07/11 08:13:28;;;;;;;24.77;5.80;;;21.70;58.70;;;;;;4857785;29;20077;-78
2022/07/11 08:15:55;;;;;;;19.08;4.63;;;21.80;58.70;;;;;;4857619;29;20026;-77
2022/07/11 08:18:21;;;;;;;19.13;5.53;;;21.80;58.80;;;;;;4857685;29;20033;-72
2022/07/11 08:20:46;;;;;;;27.23;5.43;;;21.80;59.20;;;;;;4857355;29;20026;-72
2022/07/11 08:23:12;;;;;;;21.02;5.85;;;21.80;58.70;;;;;;4855984;29;20487;-72
2022/07/11 08:25:39;;;;;;;24.52;5.88;;;21.80;58.60;;;;;;4858319;29;20309;-71
2022/07/11 08:28:05;;;;;;;21.38;6.10;;;21.70;58.60;;;;;;4875242;29;20562;-73
2022/07/11 08:30:32;;;;;;;22.15;7.20;;;21.70;58.30;;;;;;4858797;29;20065;-72
2022/07/11 08:32:58;;;;;;;19.38;6.20;;;21.70;58.80;;;;;;4860612;29;20036;-72
2022/07/11 08:35:24;;;;;;;20.42;5.63;;;21.70;59.00;;;;;;4860857;29;20225;-73
2022/07/11 08:37:50;;;;;;;22.13;6.43;;;21.70;58.80;;;;;;4860509;29;20064;-73
2022/07/11 08:40:16;;;;;;;20.83;6.50;;;21.70;59.00;;;;;;4860501;29;20041;-71
2022/07/11 08:42:43;;;;;;;22.23;6.00;;;21.80;60.30;;;;;;4860889;29;20063;-72
2022/07/11 08:45:14;;;;;;;15.45;5.90;;;21.80;61.90;;;;;;4861850;29;20083;-72
2022/07/11 08:47:40;;;;;;;17.65;5.47;;;21.90;60.60;;;;;;4862338;29;20398;-72
2022/07/11 08:50:07;;;;;;;17.33;5.93;;;21.80;59.60;;;;;;4861455;29;20128;-72
2022/07/11 08:52:33;;;;;;;17.15;6.47;;;21.70;59.50;;;;;;4861796;29;20162;-71
2022/07/11 08:54:59;;;;;;;18.55;5.70;;;21.70;59.60;;;;;;4861557;29;20120;-72
2022/07/11 08:57:25;;;;;;;18.30;5.78;;;21.70;59.60;;;;;;4861824;29;20041;-72
2022/07/11 08:59:55;;;;;;;16.15;5.18;;;21.70;59.10;;;;;;4860020;29;20034;-72
2022/07/11 09:02:22;;;;;;;16.75;4.82;;;21.70;60.00;;;;;;4861567;29;20034;-72
2022/07/11 09:04:48;;;;;;;15.48;5.18;;;21.70;59.40;;;;;;4861536;29;20078;-72
2022/07/11 09:07:14;;;;;;;15.57;4.88;;;21.70;59.40;;;;;;4860482;29;20479;-71
2022/07/11 09:09:40;;;;;;;17.65;5.22;;;21.70;60.30;;;;;;4861031;29;20090;-72
2022/07/11 09:12:15;;;;;;;24.42;6.43;;;21.70;59.70;;;;;;4861486;29;20051;-72
2022/07/11 09:14:47;;;;;;;15.15;5.13;;;21.70;59.70;;;;;;4861389;29;20030;-72
2022/07/11 09:17:13;;;;;;;16.10;5.22;;;21.70;59.40;;;;;;4860239;29;20106;-72
2022/07/11 09:19:39;;;;;;;17.17;5.18;;;21.70;59.80;;;;;;4861065;29;20045;-72
2022/07/11 09:25:20;;;;;;;16.73;4.82;;;21.70;59.30;;;;;;4861086;29;20041;-72
2022/07/11 09:28:04;;;;;;;14.13;4.10;;;21.70;59.50;;;;;;4859918;29;20105;-71
2022/07/11 09:30:37;;;;;;;11.77;3.58;;;21.70;59.20;;;;;;4859469;29;20030;-71
2022/07/11 09:33:11;;;;;;;12.30;4.00;;;21.70;58.90;;;;;;4859965;29;20053;-72
2022/07/11 09:35:45;;;;;;;12.52;4.22;;;21.70;59.20;;;;;;4875348;29;20443;-72
2022/07/11 09:38:16;;;;;;;16.08;4.13;;;21.70;59.00;;;;;;4860750;29;20030;-72
2022/07/11 09:40:47;;;;;;;13.02;3.90;;;21.70;58.90;;;;;;4874459;23;20176;-72
2022/07/11 09:43:14;;;;;;;12.10;3.08;;;21.80;59.20;;;;;;4859390;29;20037;-72
2022/07/11 09:45:41;;;;;;;12.13;3.53;;;21.80;59.00;;;;;;4861014;29;20077;-72
2022/07/11 09:48:14;;;;;;;15.18;3.65;;;21.80;58.90;;;;;;4875166;29;20025;-72
2022/07/11 09:50:53;;;;;;;10.50;3.17;;;21.80;58.80;;;;;;4860506;29;20376;-72
2022/07/11 09:53:20;;;;;;;13.63;3.13;;;21.80;58.70;;;;;;4859666;29;20033;-77
2022/07/11 09:55:46;;;;;;;8.82;3.25;;;21.80;58.90;;;;;;4859448;29;20487;-73
2022/07/11 09:58:14;;;;;;;12.52;3.30;;;21.70;58.90;;;;;;4860705;29;20049;-72
2022/07/11 10:00:41;;;;;;;10.32;2.88;;;21.70;59.00;;;;;;4860330;29;20450;-72
2022/07/11 10:03:09;;;;;;;11.05;3.50;;;21.70;58.70;;;;;;4859453;29;20088;-72
2022/07/11 10:05:36;;;;;;;9.13;2.72;;;21.70;59.20;;;;;;4860623;29;20037;-74
2022/07/11 10:08:04;;;;;;;11.55;2.67;;;21.70;58.70;;;;;;4859420;29;20030;-72
2022/07/11 10:10:32;;;;;;;14.07;3.05;;;21.70;59.00;;;;;;4854291;29;20124;-74
2022/07/11 10:12:58;;;;;;;10.50;3.08;;;21.80;58.90;;;;;;4858972;29;20463;-73
2022/07/11 10:15:33;;;;;;;9.98;2.38;;;21.80;59.30;;;;;;4860270;29;20037;-73
2022/07/11 10:18:08;;;;;;;11.25;2.95;;;21.80;60.00;;;;;;4859249;29;20081;-74
2022/07/11 10:20:56;;;;;;;13.05;2.80;;;21.80;59.70;;;;;;4859980;29;20045;-73
2022/07/11 10:23:43;;;;;;;17.65;2.88;;;21.90;58.80;;;;;;4860224;29;20061;-73
2022/07/11 10:26:30;;;;;;;12.55;3.13;;;21.90;59.60;;;;;;4860352;29;20403;-74
2022/07/11 10:29:02;;;;;;;8.98;2.50;;;22.00;59.90;;;;;;4858937;29;20089;-73
2022/07/11 10:31:30;;;;;;;9.85;2.67;;;21.90;58.70;;;;;;4858999;29;20045;-73
2022/07/11 10:34:15;;;;;;;15.65;2.85;;;21.90;58.60;;;;;;4860175;29;20026;-73
2022/07/11 10:36:42;;;;;;;8.18;2.35;;;21.80;58.80;;;;;;4859007;29;20173;-73
2022/07/11 10:39:27;;;;;;;12.57;2.80;;;21.80;59.00;;;;;;4859817;29;20033;-74
2022/07/11 10:42:18;;;;;;;14.65;2.97;;;21.80;59.10;;;;;;4843491;29;20029;-74
2022/07/11 10:44:53;;;;;;;10.65;2.33;;;21.80;59.10;;;;;;4858818;29;20041;-73
2022/07/11 10:47:41;;;;;;;7.72;2.20;;;21.80;59.20;;;;;;4859972;29;20090;-73
2022/07/11 10:50:25;;;;;;;8.80;2.58;;;21.70;59.10;;;;;;4859057;29;20037;-73
2022/07/11 10:52:56;;;;;;;15.43;2.38;;;21.70;59.20;;;;;;4859890;29;20042;-73
2022/07/11 10:55:34;;;;;;;6.40;2.60;;;21.80;59.20;;;;;;4860027;29;20167;-73
2022/07/11 10:58:12;;;;;;;8.95;2.20;;;21.70;59.10;;;;;;4859898;29;20037;-73
2022/07/11 11:00:38;;;;;;;8.57;2.13;;;21.70;59.20;;;;;;4858310;29;20049;-73
2022/07/11 11:03:06;;;;;;;11.05;2.78;;;21.70;59.00;;;;;;4859836;29;20034;-73
2022/07/11 11:05:52;;;;;;;7.65;2.30;;;21.70;59.20;;;;;;4859647;29;20124;-73
2022/07/11 11:08:35;;;;;;;5.55;1.90;;;21.70;59.00;;;;;;4859679;29;20041;-73
2022/07/11 11:11:04;;;;;;;9.25;2.10;;;21.70;59.20;;;;;;4859269;29;20048;-73
2022/07/11 11:13:31;;;;;;;9.75;2.00;;;21.70;59.20;;;;;;4859716;29;20034;-74
2022/07/11 11:15:59;;;;;;;6.03;2.03;;;21.70;59.00;;;;;;4859796;29;20037;-73
2022/07/11 11:18:24;;;;;;;5.63;1.90;;;21.70;59.20;;;;;;4859679;29;20033;-73
2022/07/11 11:21:02;;;;;;;5.47;2.10;;;21.70;59.10;;;;;;4859103;29;20546;-74
2022/07/11 11:23:31;;;;;;;9.45;2.30;;;21.70;59.10;;;;;;4859617;29;20505;-73
2022/07/11 11:26:10;;;;;;;7.15;1.80;;;21.70;59.10;;;;;;4858281;29;20391;-74
2022/07/11 11:28:38;;;;;;;6.75;1.98;;;21.70;59.00;;;;;;4859961;29;20053;-73
2022/07/11 11:31:06;;;;;;;8.75;2.25;;;21.80;59.20;;;;;;4859138;29;20061;-74
2022/07/11 11:33:36;;;;;;;7.50;2.13;;;21.70;59.10;;;;;;4859686;29;20053;-73
2022/07/11 11:36:07;;;;;;;4.45;2.05;;;21.80;59.10;;;;;;4859382;29;20037;-73
2022/07/11 11:38:34;;;;;;;5.20;2.22;;;21.80;59.10;;;;;;4858388;29;20038;-73
2022/07/11 11:41:00;;;;;;;7.88;2.05;;;21.70;59.10;;;;;;4859049;29;20080;-74
2022/07/11 11:43:27;;;;;;;6.35;2.25;;;21.80;59.10;;;;;;4859454;29;20038;-74
2022/07/11 11:45:54;;;;;;;6.03;2.08;;;21.70;59.10;;;;;;4859214;29;20030;-74
2022/07/11 11:48:26;;;;;;;7.13;1.92;;;21.80;59.20;;;;;;4859340;29;20030;-73
2022/07/11 11:50:53;;;;;;;8.55;2.22;;;21.70;59.10;;;;;;4859107;29;20025;-73
2022/07/11 11:53:19;;;;;;;9.25;2.35;;;21.70;59.20;;;;;;4858216;29;20049;-74
2022/07/11 11:55:45;;;;;;;4.75;2.03;;;21.70;59.20;;;;;;4859370;29;20091;-73
2022/07/11 11:58:11;;;;;;;5.13;1.90;;;21.70;59.30;;;;;;4859378;29;20044;-74
2022/07/11 12:00:37;;;;;;;6.85;2.20;;;21.70;59.30;;;;;;4859816;29;20038;-73
2022/07/11 12:03:03;;;;;;;5.82;1.90;;;21.70;59.30;;;;;;4861840;29;20391;-73
2022/07/11 12:05:28;;;;;;;6.68;2.00;;;21.70;59.30;;;;;;4861382;29;20090;-73
2022/07/11 12:07:54;;;;;;;6.75;1.90;;;21.70;59.30;;;;;;4862746;29;20109;-73
2022/07/11 12:10:20;;;;;;;3.30;1.55;;;21.70;59.20;;;;;;4861390;29;20033;-73
2022/07/11 12:12:52;;;;;;;6.57;1.90;;;21.70;59.30;;;;;;4862794;29;20037;-74
2022/07/11 12:15:34;;;;;;;6.95;2.13;;;21.70;59.30;;;;;;4861682;29;20037;-73
2022/07/11 12:18:04;;;;;;;5.95;2.08;;;21.70;59.40;;;;;;4862507;29;20399;-73
2022/07/11 12:20:42;;;;;;;3.55;1.70;;;21.70;59.30;;;;;;4860910;29;20041;-73
2022/07/11 12:23:15;;;;;;;7.13;1.80;;;21.70;59.30;;;;;;4861289;29;20042;-73
2022/07/11 12:25:42;;;;;;;4.82;1.95;;;21.70;59.40;;;;;;4862216;29;20033;-74
2022/07/11 12:28:12;;;;;;;3.72;1.60;;;21.70;59.40;;;;;;4861567;29;20040;-73
2022/07/11 12:30:38;;;;;;;5.18;1.92;;;21.70;59.40;;;;;;4861988;29;20026;-73
2022/07/11 12:33:14;;;;;;;6.88;1.95;;;21.70;59.40;;;;;;4862452;29;20026;-74
2022/07/11 12:35:58;;;;;;;5.60;2.03;;;21.70;59.30;;;;;;4861059;29;20039;-73
2022/07/11 12:38:25;;;;;;;7.35;1.98;;;21.70;59.40;;;;;;4861283;29;20503;-74
2022/07/11 12:41:05;;;;;;;4.20;1.70;;;21.60;59.30;;;;;;4845414;29;20490;-74
2022/07/11 12:46:38;;;;;;;7.35;2.03;;;21.70;59.50;;;;;;4862031;29;20033;-74
2022/07/11 12:49:05;;;;;;;5.32;1.90;;;21.70;59.40;;;;;;4860996;29;20093;-74
2022/07/11 12:51:34;;;;;;;6.05;1.92;;;21.70;59.30;;;;;;4861673;29;20030;-73